createdAt,value
2022-08-02T00:00:29.317Z,14.56
2022-08-02T00:01:29.239Z,14.51
2022-08-02T00:02:29.038Z,14.52
2022-08-02T00:03:29.494Z,14.48
2022-08-02T00:04:29.292Z,14.48
2022-08-02T00:05:29.568Z,14.52
2022-08-02T00:06:29.264Z,14.42
2022-08-02T00:07:29.514Z,14.46
2022-08-02T00:08:29.509Z,14.48
2022-08-02T00:09:29.507Z,14.46
2022-08-02T00:10:30.416Z,14.38
2022-08-02T00:11:29.236Z,14.36
2022-08-02T00:12:29.226Z,14.39
2022-08-02T00:13:29.208Z,14.36
2022-08-02T00:14:29.204Z,14.36
2022-08-02T00:15:29.463Z,14.31
2022-08-02T00:16:43.036Z,14.38
2022-08-02T00:17:29.180Z,14.44
2022-08-02T00:18:29.176Z,14.34
2022-08-02T00:19:29.172Z,14.36
2022-08-02T00:20:29.412Z,14.36
2022-08-02T00:21:28.901Z,14.41
2022-08-02T00:22:29.667Z,14.31
2022-08-02T00:23:29.146Z,14.24
2022-08-02T00:24:35.613Z,14.33
2022-08-02T00:25:29.131Z,14.27
2022-08-02T00:26:29.114Z,14.31
2022-08-02T00:27:28.858Z,14.27
2022-08-02T00:28:32.665Z,14.3
2022-08-02T00:29:29.099Z,14.33
2022-08-02T00:30:29.088Z,14.27
2022-08-02T00:31:29.076Z,14.3
2022-08-02T00:32:29.334Z,14.26
2022-08-02T00:34:37.960Z,14.19
2022-08-02T00:34:48.681Z,14.24
2022-08-02T00:35:48.897Z,14.13
2022-08-02T00:36:48.632Z,14.11
2022-08-02T00:37:48.886Z,14.12
2022-08-02T00:38:48.874Z,14.11
2022-08-02T00:39:48.609Z,14.09
2022-08-02T00:40:48.858Z,14.05
2022-08-02T00:41:48.601Z,14.09
2022-08-02T00:42:48.587Z,14.08
2022-08-02T00:43:48.580Z,14.09
2022-08-02T00:44:48.325Z,14.06
2022-08-02T00:46:08.213Z,14.06
2022-08-02T00:46:48.558Z,14.11
2022-08-02T00:47:48.810Z,14.15
2022-08-02T00:48:48.590Z,14.08
2022-08-02T00:49:48.789Z,14.09
2022-08-02T00:50:48.534Z,14.08
2022-08-02T00:51:48.790Z,14.03
2022-08-02T00:52:48.766Z,14.06
2022-08-02T00:53:48.503Z,14.05
2022-08-02T00:54:48.498Z,13.97
2022-08-02T00:55:48.747Z,14.09
2022-08-02T00:56:54.309Z,14.05
2022-08-02T00:57:48.725Z,14.03
2022-08-02T00:58:48.713Z,14.01
2022-08-02T00:59:48.454Z,13.99
2022-08-02T01:00:48.704Z,13.95
2022-08-02T01:02:02.799Z,13.97
2022-08-02T01:02:48.694Z,13.97
2022-08-02T01:03:48.425Z,13.95
2022-08-02T01:04:48.568Z,13.95
2022-08-02T01:06:14.472Z,13.94
2022-08-02T01:06:49.075Z,13.88
2022-08-02T01:07:49.054Z,13.87
2022-08-02T01:08:48.863Z,13.91
2022-08-02T01:09:49.052Z,13.94
2022-08-02T01:10:49.867Z,13.9
2022-08-02T01:11:49.047Z,13.86
2022-08-02T01:12:48.768Z,13.94
2022-08-02T01:13:49.007Z,13.87
2022-08-02T01:14:48.499Z,13.91
2022-08-02T01:15:48.992Z,13.86
2022-08-02T01:16:51.353Z,13.87
2022-08-02T01:17:48.724Z,13.81
2022-08-02T01:18:48.968Z,13.97
2022-08-02T01:19:48.973Z,13.95
2022-08-02T01:20:48.977Z,14.06
2022-08-02T01:21:48.949Z,14.08
2022-08-02T01:23:05.450Z,14.08
2022-08-02T01:23:48.673Z,14.16
2022-08-02T01:24:48.672Z,14.27
2022-08-02T01:25:48.670Z,14.31
2022-08-02T01:26:48.649Z,14.46
2022-08-02T01:27:48.644Z,14.48
2022-08-02T01:28:48.635Z,14.44
2022-08-02T01:29:48.880Z,14.45
2022-08-02T01:30:48.871Z,14.52
2022-08-02T01:31:48.456Z,14.49
2022-08-02T01:32:48.877Z,14.49
2022-08-02T01:33:48.589Z,14.48
2022-08-02T01:34:48.842Z,14.57
2022-08-02T01:35:55.844Z,14.6
2022-08-02T01:36:48.316Z,14.63
2022-08-02T01:37:48.824Z,14.69
2022-08-02T01:38:48.563Z,14.7
2022-08-02T01:39:48.547Z,14.63
2022-08-02T01:40:48.282Z,14.75
2022-08-02T01:41:48.523Z,14.67
2022-08-02T01:42:48.520Z,14.69
2022-08-02T01:43:48.516Z,14.77
2022-08-02T01:44:48.519Z,14.85
2022-08-02T01:45:48.536Z,14.87
2022-08-02T01:46:49.471Z,14.85
2022-08-02T01:47:48.738Z,14.86
2022-08-02T01:48:48.489Z,14.8
2022-08-02T01:49:48.573Z,14.9
2022-08-02T01:50:48.714Z,14.87
2022-08-02T01:51:48.719Z,14.86
2022-08-02T01:52:58.483Z,14.82
2022-08-02T01:53:48.702Z,14.82
2022-08-02T01:54:48.694Z,14.86
2022-08-02T01:56:03.568Z,14.75
2022-08-02T01:56:48.413Z,14.83
2022-08-02T01:57:48.411Z,14.71
2022-08-02T01:58:49.045Z,14.83
2022-08-02T01:59:48.393Z,14.77
2022-08-02T02:00:48.973Z,14.74
2022-08-02T02:01:48.941Z,14.67
2022-08-02T02:02:49.947Z,14.7
2022-08-02T02:03:48.617Z,14.67
2022-08-02T02:04:48.626Z,14.67
2022-08-02T02:05:48.608Z,14.64
2022-08-02T02:06:48.604Z,14.69
2022-08-02T02:07:48.344Z,14.66
2022-08-02T02:08:48.575Z,14.66
2022-08-02T02:09:55.489Z,14.56
2022-08-02T02:10:48.569Z,14.59
2022-08-02T02:12:17.755Z,14.57
2022-08-02T02:12:48.549Z,14.56
2022-08-02T02:13:48.289Z,14.59
2022-08-02T02:14:56.826Z,14.51
2022-08-02T02:15:48.557Z,14.49
2022-08-02T02:16:48.381Z,14.48
2022-08-02T02:18:17.071Z,14.53
2022-08-02T02:18:48.300Z,14.46
2022-08-02T02:19:47.987Z,14.44
2022-08-02T02:20:47.983Z,14.42
2022-08-02T02:21:48.872Z,14.33
2022-08-02T02:22:51.907Z,14.41
2022-08-02T02:23:49.393Z,14.34
2022-08-02T02:24:50.408Z,14.3
2022-08-02T02:25:52.417Z,14.27
2022-08-02T02:26:57.215Z,14.27
2022-08-02T02:27:48.952Z,14.16
2022-08-02T02:28:48.682Z,14.15
2022-08-02T02:29:48.656Z,14.16
2022-08-02T02:30:48.643Z,14.16
2022-08-02T02:31:48.636Z,14.15
2022-08-02T02:32:48.885Z,14.09
2022-08-02T02:33:48.878Z,14.09
2022-08-02T02:34:48.615Z,14.08
2022-08-02T02:35:48.859Z,14.08
2022-08-02T02:36:48.341Z,14.11
2022-08-02T02:37:48.596Z,13.97
2022-08-02T02:38:48.833Z,13.95
2022-08-02T02:39:48.579Z,13.97
2022-08-02T02:40:48.844Z,13.99
2022-08-02T02:41:48.578Z,14.01
2022-08-02T02:42:53.851Z,13.95
2022-08-02T02:43:48.802Z,13.95
2022-08-02T02:44:48.533Z,14.01
2022-08-02T02:45:48.541Z,13.95
2022-08-02T02:46:48.514Z,14.01
2022-08-02T02:47:48.508Z,14.01
2022-08-02T02:48:48.757Z,13.94
2022-08-02T02:49:48.748Z,13.93
2022-08-02T02:50:48.484Z,14.01
2022-08-02T02:51:48.478Z,13.97
2022-08-02T02:52:48.211Z,13.94
2022-08-02T02:54:38.488Z,13.93
2022-08-02T02:54:49.026Z,13.86
2022-08-02T02:56:06.654Z,13.84
2022-08-02T02:56:48.770Z,13.86
2022-08-02T02:57:48.743Z,13.86
2022-08-02T02:58:48.990Z,13.84
2022-08-02T02:59:54.267Z,13.84
2022-08-02T03:00:49.121Z,13.81
2022-08-02T03:02:02.537Z,13.78
2022-08-02T03:02:48.963Z,13.83
2022-08-02T03:03:48.694Z,13.79
2022-08-02T03:05:01.667Z,13.7
2022-08-02T03:05:48.427Z,13.75
2022-08-02T03:06:48.675Z,13.68
2022-08-02T03:07:48.662Z,13.68
2022-08-02T03:08:49.351Z,13.65
2022-08-02T03:09:56.750Z,13.73
2022-08-02T03:10:48.382Z,13.73
2022-08-02T03:11:48.883Z,13.72
2022-08-02T03:12:48.620Z,13.57
2022-08-02T03:13:48.875Z,13.7
2022-08-02T03:14:51.666Z,13.68
2022-08-02T03:15:48.598Z,13.66
2022-08-02T03:16:48.844Z,13.55
2022-08-02T03:17:48.867Z,13.53
2022-08-02T03:18:48.834Z,13.57
2022-08-02T03:19:48.562Z,13.58
2022-08-02T03:20:48.818Z,13.55
2022-08-02T03:21:48.555Z,13.51
2022-08-02T03:22:48.764Z,13.53
2022-08-02T03:23:48.793Z,13.54
2022-08-02T03:24:48.526Z,13.55
2022-08-02T03:25:48.253Z,13.62
2022-08-02T03:26:48.511Z,13.66
2022-08-02T03:27:48.523Z,13.63
2022-08-02T03:28:48.490Z,13.72
2022-08-02T03:29:48.482Z,13.81
2022-08-02T03:30:48.477Z,13.76
2022-08-02T03:31:48.728Z,13.88
2022-08-02T03:32:48.458Z,13.93
2022-08-02T03:49:30.244Z,14.01
2022-08-02T03:50:29.888Z,14.02
2022-08-02T03:51:29.604Z,14.06
2022-08-02T03:52:30.102Z,13.97
2022-08-02T03:53:29.848Z,14.05
2022-08-02T03:54:47.863Z,13.95
2022-08-02T03:55:30.077Z,13.91
2022-08-02T03:56:30.063Z,13.99
2022-08-02T03:57:30.055Z,13.94
2022-08-02T03:58:30.046Z,13.99
2022-08-02T03:59:43.191Z,13.95
2022-08-02T04:00:30.019Z,13.95
2022-08-02T04:01:30.253Z,13.94
2022-08-02T04:02:29.742Z,13.81
2022-08-02T04:03:30.003Z,13.87
2022-08-02T04:04:29.802Z,13.93
2022-08-02T04:05:29.715Z,13.94
2022-08-02T04:06:33.697Z,13.88
2022-08-02T04:08:41.020Z,13.94
2022-08-02T04:08:51.058Z,13.97
2022-08-02T04:09:51.303Z,14.01
2022-08-02T04:10:51.302Z,13.95
2022-08-02T04:11:51.551Z,13.94
2022-08-02T04:12:51.012Z,13.99
2022-08-02T04:13:53.476Z,14.06
2022-08-02T04:14:51.513Z,14.05
2022-08-02T04:15:51.509Z,14.08
2022-08-02T04:16:51.246Z,14.06
2022-08-02T04:17:51.241Z,14.08
2022-08-02T04:18:51.219Z,14.09
2022-08-02T04:19:51.476Z,14.08
2022-08-02T04:20:51.211Z,14.09
2022-08-02T04:21:56.883Z,14.11
2022-08-02T04:22:51.442Z,14.11
2022-08-02T04:23:51.237Z,14.13
2022-08-02T04:24:54.592Z,14.21
2022-08-02T04:25:56.208Z,14.16
2022-08-02T04:26:53.780Z,14.12
2022-08-02T04:28:20.116Z,14.16
2022-08-02T04:28:51.142Z,14.21
2022-08-02T04:29:51.732Z,14.12
2022-08-02T04:30:51.142Z,14.21
2022-08-02T04:31:51.373Z,14.27
2022-08-02T04:32:51.370Z,14.26
2022-08-02T04:33:51.099Z,14.26
2022-08-02T04:35:23.562Z,14.27
2022-08-02T04:35:51.359Z,14.28
2022-08-02T04:36:51.079Z,14.27
2022-08-02T04:38:14.737Z,14.33
2022-08-02T04:38:52.887Z,14.39
2022-08-02T04:39:51.308Z,14.38
2022-08-02T04:40:51.302Z,14.41
2022-08-02T04:41:54.474Z,14.41
2022-08-02T04:42:51.284Z,14.44
2022-08-02T04:43:51.017Z,14.39
2022-08-02T04:44:51.271Z,14.48
2022-08-02T04:45:51.258Z,14.45
2022-08-02T04:46:51.266Z,14.45
2022-08-02T04:48:08.953Z,14.49
2022-08-02T04:48:51.045Z,14.53
2022-08-02T04:49:50.983Z,14.56
2022-08-02T04:50:51.220Z,14.59
2022-08-02T04:51:51.220Z,14.64
2022-08-02T04:52:51.204Z,14.69
2022-08-02T04:53:51.406Z,14.7
2022-08-02T04:54:51.200Z,14.86
2022-08-02T04:55:51.180Z,14.8
2022-08-02T04:56:51.175Z,14.77
2022-08-02T04:57:58.160Z,14.98
2022-08-02T04:58:50.901Z,14.98
2022-08-02T04:59:56.636Z,15.05
2022-08-02T05:00:51.449Z,15.02
2022-08-02T05:01:50.626Z,15.05
2022-08-02T05:02:51.122Z,15.08
2022-08-02T05:03:52.053Z,15.1
2022-08-02T05:04:51.113Z,15.23
2022-08-02T05:05:50.844Z,15.23
2022-08-02T05:06:50.852Z,15.27
2022-08-02T05:07:51.100Z,15.31
2022-08-02T05:08:57.195Z,15.44
2022-08-02T05:09:50.819Z,15.41
2022-08-02T05:10:51.071Z,15.49
2022-08-02T05:11:59.663Z,15.56
2022-08-02T05:12:51.060Z,15.67
2022-08-02T05:14:02.251Z,15.93
2022-08-02T05:14:51.042Z,15.98
2022-08-02T05:15:51.037Z,16.06
2022-08-02T05:16:51.028Z,16.18
2022-08-02T05:17:52.508Z,16.26
2022-08-02T05:18:52.185Z,16.32
2022-08-02T05:19:50.754Z,16.4
2022-08-02T05:20:54.014Z,16.59
2022-08-02T05:21:50.479Z,16.72
2022-08-02T05:22:50.739Z,16.67
2022-08-02T05:23:50.723Z,16.77
2022-08-02T05:24:50.979Z,16.74
2022-08-02T05:25:50.707Z,16.81
2022-08-02T05:26:50.447Z,16.74
2022-08-02T05:27:50.437Z,16.77
2022-08-02T05:28:50.943Z,16.76
2022-08-02T05:29:59.351Z,16.72
2022-08-02T05:30:51.778Z,16.74
2022-08-02T05:31:50.409Z,16.74
2022-08-02T05:32:50.418Z,16.73
2022-08-02T05:33:50.927Z,16.67
2022-08-02T05:34:50.905Z,16.77
2022-08-02T05:35:51.853Z,16.8
2022-08-02T05:36:51.396Z,16.81
2022-08-02T05:37:53.114Z,16.88
2022-08-02T05:38:59.576Z,16.95
2022-08-02T05:40:01.260Z,16.94
2022-08-02T05:40:58.918Z,17.03
2022-08-02T05:41:50.362Z,17.17
2022-08-02T05:42:50.864Z,17.22
2022-08-02T05:43:50.335Z,17.36
2022-08-02T05:44:50.845Z,17.62
2022-08-02T05:45:50.839Z,17.63
2022-08-02T05:46:52.413Z,17.81
2022-08-02T05:47:50.573Z,17.95
2022-08-02T05:48:50.859Z,18.1
2022-08-02T05:49:50.561Z,18.2
2022-08-02T05:50:50.820Z,18.16
2022-08-02T05:51:50.559Z,18.23
2022-08-02T05:52:51.577Z,18.31
2022-08-02T05:53:52.308Z,18.26
2022-08-02T05:54:50.789Z,18.24
2022-08-02T05:55:50.785Z,18.29
2022-08-02T05:56:50.533Z,18.39
2022-08-02T05:57:50.262Z,18.34
2022-08-02T05:58:50.263Z,18.27
2022-08-02T05:59:50.523Z,18.31
2022-08-02T06:00:50.775Z,18.39
2022-08-02T06:01:50.783Z,18.36
2022-08-02T06:02:50.758Z,18.35
2022-08-02T06:03:50.749Z,18.34
2022-08-02T06:04:50.478Z,18.35
2022-08-02T06:05:51.087Z,18.24
2022-08-02T06:06:50.736Z,18.35
2022-08-02T06:07:50.734Z,18.27
2022-08-02T06:08:52.740Z,18.32
2022-08-02T06:09:50.739Z,18.23
2022-08-02T06:10:50.205Z,18.23
2022-08-02T06:12:16.960Z,18.23
2022-08-02T06:12:50.442Z,18.19
2022-08-02T06:13:50.185Z,18.21
2022-08-02T06:14:54.985Z,18.19
2022-08-02T06:15:58.163Z,18.21
2022-08-02T06:16:50.720Z,18.16
2022-08-02T06:17:53.063Z,18.23
2022-08-02T06:18:50.164Z,18.23
2022-08-02T06:19:57.010Z,18.27
2022-08-02T06:20:50.666Z,18.35
2022-08-02T06:22:44.424Z,18.31
2022-08-02T06:22:55.005Z,18.35
2022-08-02T06:24:03.416Z,18.39
2022-08-02T06:24:55.006Z,18.41
2022-08-02T06:25:56.346Z,18.47
2022-08-02T06:26:55.040Z,18.51
2022-08-02T06:27:54.466Z,18.61
2022-08-02T06:28:54.464Z,18.57
2022-08-02T06:29:54.966Z,18.78
2022-08-02T06:30:54.474Z,18.82
2022-08-02T06:31:54.717Z,18.84
2022-08-02T06:32:54.709Z,18.99
2022-08-02T06:33:54.726Z,18.97
2022-08-02T06:34:54.705Z,18.99
2022-08-02T06:35:54.692Z,18.97
2022-08-02T06:36:55.321Z,19.09
2022-08-02T06:38:00.781Z,19.2
2022-08-02T06:38:55.988Z,19.2
2022-08-02T06:39:54.939Z,19.15
2022-08-02T06:40:54.663Z,19.24
2022-08-02T06:41:54.399Z,19.35
2022-08-02T06:42:54.658Z,19.55
2022-08-02T06:43:54.394Z,19.52
2022-08-02T06:45:00.862Z,19.67
2022-08-02T06:45:54.906Z,19.74
2022-08-02T06:47:19.389Z,19.9
2022-08-02T06:48:19.128Z,20.05
2022-08-02T06:49:19.642Z,20.44
2022-08-02T06:50:19.096Z,21.01
2022-08-02T06:51:19.095Z,21.48
2022-08-02T06:52:30.483Z,21.9
2022-08-02T06:53:20.452Z,22.33
2022-08-02T06:54:19.337Z,22.57
2022-08-02T06:55:19.336Z,22.91
2022-08-02T06:56:19.087Z,23.41
2022-08-02T06:57:19.080Z,24.19
2022-08-02T06:58:19.322Z,24.82
2022-08-02T06:59:18.814Z,25.34
2022-08-02T07:00:20.213Z,25.81
2022-08-02T07:01:19.297Z,26.2
2022-08-02T07:02:19.500Z,26.63
2022-08-02T07:03:19.060Z,26.79
2022-08-02T07:04:23.472Z,26.89
2022-08-02T07:05:19.346Z,26.9
2022-08-02T07:06:18.800Z,27.11
2022-08-02T07:07:18.804Z,27.31
2022-08-02T07:08:19.314Z,27.41
2022-08-02T07:09:26.862Z,27.48
2022-08-02T07:10:19.318Z,27.62
2022-08-02T07:11:19.054Z,27.86
2022-08-02T07:12:19.787Z,28.03
2022-08-02T07:13:19.316Z,28.16
2022-08-02T07:14:19.055Z,28.27
2022-08-02T07:15:19.058Z,28.55
2022-08-02T07:16:19.065Z,28.63
2022-08-02T07:17:18.802Z,28.9
2022-08-02T07:18:18.803Z,29.11
2022-08-02T07:19:18.805Z,29.38
2022-08-02T07:20:19.431Z,29.43
2022-08-02T07:22:00.730Z,29.4
2022-08-02T07:22:19.765Z,29.51
2022-08-02T07:23:19.324Z,29.45
2022-08-02T07:24:19.319Z,29.61
2022-08-02T07:25:19.070Z,29.67
2022-08-02T07:26:19.081Z,29.72
2022-08-02T07:27:19.083Z,29.52
2022-08-02T07:28:29.029Z,29.2
2022-08-02T07:29:19.340Z,28.98
2022-08-02T07:30:18.823Z,28.45
2022-08-02T07:31:19.360Z,27.98
2022-08-02T07:32:19.497Z,27.51
2022-08-02T07:33:47.694Z,27.09
2022-08-02T07:34:19.098Z,27.04
2022-08-02T07:35:23.574Z,27.04
2022-08-02T07:36:27.898Z,27.46
2022-08-02T07:38:04.451Z,28.35
2022-08-02T07:38:20.382Z,28.48
2022-08-02T07:39:19.903Z,28.82
2022-08-02T07:40:25.199Z,29.1
2022-08-02T07:41:19.112Z,29.3
2022-08-02T07:42:19.311Z,29.5
2022-08-02T07:43:19.373Z,29.67
2022-08-02T07:44:19.128Z,29.55
2022-08-02T07:45:19.123Z,29.6
2022-08-02T07:46:19.117Z,29.65
2022-08-02T07:47:19.429Z,29.58
2022-08-02T07:48:19.402Z,29.84
2022-08-02T07:49:19.628Z,30.22
2022-08-02T07:50:18.887Z,30.49
2022-08-02T07:51:21.970Z,30.52
2022-08-02T07:52:19.778Z,30.54
2022-08-02T07:53:19.133Z,30.57
2022-08-02T07:54:21.607Z,30.59
2022-08-02T07:55:18.890Z,30.69
2022-08-02T07:56:19.408Z,30.73
2022-08-02T07:57:19.150Z,30.78
2022-08-02T07:58:19.157Z,31.03
2022-08-02T07:59:19.167Z,31.23
2022-08-02T08:00:19.435Z,31.3
2022-08-02T08:01:19.425Z,31.3
2022-08-02T08:02:19.184Z,31.44
2022-08-02T08:03:19.186Z,31.56
2022-08-02T08:04:19.182Z,31.45
2022-08-02T08:05:19.181Z,31.08
2022-08-02T08:06:19.441Z,30.79
2022-08-02T08:07:19.188Z,30.45
2022-08-02T08:08:21.961Z,30.09
2022-08-02T08:09:18.931Z,29.57
2022-08-02T08:10:19.452Z,29.06
2022-08-02T08:11:18.932Z,28.51
2022-08-02T08:12:20.749Z,28.06
2022-08-02T08:13:19.568Z,27.8
2022-08-02T08:14:21.745Z,27.49
2022-08-02T08:15:19.200Z,27.27
2022-08-02T08:16:19.207Z,27.01
2022-08-02T08:17:18.940Z,26.93
2022-08-02T08:18:18.942Z,26.49
2022-08-02T08:19:19.203Z,26.3
2022-08-02T08:20:20.870Z,25.94
2022-08-02T08:21:19.222Z,25.76
2022-08-02T08:22:19.640Z,25.59
2022-08-02T08:23:18.952Z,25.45
2022-08-02T08:24:19.213Z,25.37
2022-08-02T08:25:19.185Z,25.27
2022-08-02T08:26:20.457Z,25.15
2022-08-02T08:27:19.722Z,25.01
2022-08-02T08:28:18.956Z,24.94
2022-08-02T08:29:19.479Z,24.82
2022-08-02T08:30:19.475Z,24.83
2022-08-02T08:31:19.488Z,24.85
2022-08-02T08:32:22.556Z,24.69
2022-08-02T08:33:18.975Z,24.51
2022-08-02T08:34:18.968Z,24.48
2022-08-02T08:35:19.222Z,24.45
2022-08-02T08:36:19.475Z,24.46
2022-08-02T08:37:22.880Z,24.26
2022-08-02T08:38:19.248Z,24.11
2022-08-02T08:39:19.223Z,23.94
2022-08-02T08:40:24.237Z,23.9
2022-08-02T08:41:19.477Z,23.84
2022-08-02T08:42:23.225Z,23.66
2022-08-02T08:43:18.975Z,23.78
2022-08-02T08:44:19.228Z,23.77
2022-08-02T08:45:19.489Z,23.89
2022-08-02T08:46:19.492Z,23.81
2022-08-02T08:47:18.976Z,23.75
2022-08-02T08:48:33.643Z,23.71
2022-08-02T08:49:19.475Z,23.74
2022-08-02T08:50:27.798Z,23.64
2022-08-02T08:51:19.983Z,23.62
2022-08-02T08:52:20.492Z,23.53
2022-08-02T08:53:22.589Z,23.59
2022-08-02T08:54:20.234Z,23.52
2022-08-02T08:55:20.495Z,23.5
2022-08-02T08:56:21.596Z,23.56
2022-08-02T08:57:20.719Z,23.47
2022-08-02T08:58:19.976Z,23.45
2022-08-02T08:59:20.493Z,23.28
2022-08-02T09:00:20.510Z,23.19
2022-08-02T09:01:20.634Z,23.04
2022-08-02T09:02:31.057Z,22.92
2022-08-02T09:03:20.479Z,22.86
2022-08-02T09:04:20.481Z,22.84
2022-08-02T09:05:19.973Z,22.78
2022-08-02T09:06:19.965Z,22.75
2022-08-02T09:07:21.048Z,22.76
2022-08-02T09:08:22.022Z,22.81
2022-08-02T09:09:20.483Z,22.63
2022-08-02T09:10:20.527Z,22.64
2022-08-02T09:11:19.972Z,22.66
2022-08-02T09:12:20.479Z,22.7
2022-08-02T09:13:49.373Z,22.6
2022-08-02T09:14:20.225Z,22.64
2022-08-02T09:15:20.708Z,22.63
2022-08-02T09:16:19.963Z,22.63
2022-08-02T09:17:21.868Z,22.75
2022-08-02T09:18:20.214Z,23
2022-08-02T09:19:20.556Z,23.32
2022-08-02T09:20:20.471Z,23.47
2022-08-02T09:21:20.693Z,23.64
2022-08-02T09:22:21.470Z,23.92
2022-08-02T09:23:20.210Z,24.14
2022-08-02T09:24:19.948Z,24.39
2022-08-02T09:25:20.458Z,24.55
2022-08-02T09:26:20.492Z,24.85
2022-08-02T09:27:19.952Z,25.09
2022-08-02T09:28:21.608Z,25.23
2022-08-02T09:29:20.209Z,25.14
2022-08-02T09:30:20.459Z,25.04
2022-08-02T09:31:20.198Z,24.92
2022-08-02T09:32:20.456Z,24.86
2022-08-02T09:33:20.457Z,25.01
2022-08-02T09:34:24.867Z,24.96
2022-08-02T09:35:20.188Z,24.83
2022-08-02T09:36:20.201Z,24.69
2022-08-02T09:37:20.447Z,24.71
2022-08-02T09:38:20.470Z,25
2022-08-02T09:39:20.199Z,25.17
2022-08-02T09:40:20.281Z,25.37
2022-08-02T09:41:20.454Z,25.33
2022-08-02T09:42:21.237Z,25.47
2022-08-02T09:43:20.208Z,25.52
2022-08-02T09:44:21.147Z,25.54
2022-08-02T09:45:20.556Z,25.59
2022-08-02T09:46:26.451Z,25.56
2022-08-02T09:47:20.449Z,25.52
2022-08-02T09:48:19.930Z,25.56
2022-08-02T09:49:21.163Z,25.62
2022-08-02T09:50:21.142Z,25.57
2022-08-02T09:51:20.796Z,25.37
2022-08-02T09:52:20.797Z,25.24
2022-08-02T09:53:21.050Z,25.34
2022-08-02T09:54:21.062Z,25.41
2022-08-02T09:55:20.794Z,25.49
2022-08-02T09:56:39.879Z,25.51
2022-08-02T09:57:20.810Z,25.59
2022-08-02T09:58:20.801Z,25.56
2022-08-02T09:59:21.312Z,25.64
2022-08-02T10:00:54.619Z,25.93
2022-08-02T10:01:39.354Z,26.06
2022-08-02T10:02:24.783Z,26.19
2022-08-02T10:03:37.449Z,26.34
2022-08-02T10:04:27.618Z,26.42
2022-08-02T10:05:24.855Z,26.5
2022-08-02T10:06:21.051Z,26.5
2022-08-02T10:07:21.677Z,26.61
2022-08-02T10:08:21.055Z,26.68
2022-08-02T10:09:21.317Z,26.67
2022-08-02T10:10:21.065Z,26.71
2022-08-02T10:11:21.055Z,26.68
2022-08-02T10:12:20.802Z,26.74
2022-08-02T10:13:26.466Z,26.6
2022-08-02T10:14:21.064Z,26.5
2022-08-02T10:15:24.575Z,26.42
2022-08-02T10:16:21.057Z,26.34
2022-08-02T10:17:21.059Z,26.22
2022-08-02T10:18:43.848Z,26.17
2022-08-02T10:20:05.182Z,26.26
2022-08-02T10:20:21.164Z,26.24
2022-08-02T10:21:21.086Z,26.31
2022-08-02T10:22:23.938Z,26.37
2022-08-02T10:23:21.328Z,26.47
2022-08-02T10:24:21.070Z,26.53
2022-08-02T10:25:20.811Z,26.68
2022-08-02T10:26:21.341Z,26.68
2022-08-02T10:27:21.355Z,26.71
2022-08-02T10:28:24.127Z,26.5
2022-08-02T10:29:21.066Z,26.49
2022-08-02T10:30:21.066Z,26.67
2022-08-02T10:31:21.338Z,26.79
2022-08-02T10:32:20.827Z,26.97
2022-08-02T10:33:21.336Z,27.01
2022-08-02T10:34:21.326Z,26.97
2022-08-02T10:35:29.465Z,26.89
2022-08-02T10:36:21.333Z,26.81
2022-08-02T10:37:21.336Z,26.93
2022-08-02T10:38:21.349Z,26.91
2022-08-02T10:39:21.073Z,26.93
2022-08-02T10:40:21.079Z,26.76
2022-08-02T10:41:21.628Z,26.61
2022-08-02T10:42:21.097Z,26.68
2022-08-02T10:43:26.230Z,26.81
2022-08-02T10:44:29.674Z,26.91
2022-08-02T10:45:21.341Z,26.97
2022-08-02T10:46:21.346Z,26.9
2022-08-02T10:47:21.081Z,27.04
2022-08-02T10:48:21.347Z,27.09
2022-08-02T10:49:51.195Z,26.91
2022-08-02T10:50:21.457Z,26.78
2022-08-02T10:51:31.856Z,26.32
2022-08-02T10:52:21.599Z,26.26
2022-08-02T10:53:20.844Z,25.97
2022-08-02T10:54:21.126Z,25.76
2022-08-02T10:55:27.693Z,25.6
2022-08-02T10:56:21.100Z,25.42
2022-08-02T10:57:21.352Z,25.42
2022-08-02T10:58:21.100Z,25.38
2022-08-02T10:59:20.844Z,25.23
2022-08-02T11:00:24.002Z,25.32
2022-08-02T11:01:21.422Z,25.3
2022-08-02T11:02:21.647Z,25.27
2022-08-02T11:03:21.100Z,25.26
2022-08-02T11:04:21.093Z,25.12
2022-08-02T11:05:21.112Z,25.2
2022-08-02T11:06:35.742Z,25.24
2022-08-02T11:07:21.401Z,25.24
2022-08-02T11:08:20.884Z,25.51
2022-08-02T11:09:21.391Z,25.81
2022-08-02T11:10:21.365Z,26
2022-08-02T11:11:56.172Z,26.27
2022-08-02T11:12:21.434Z,26.32
2022-08-02T11:13:21.096Z,26.52
2022-08-02T11:14:21.356Z,26.72
2022-08-02T11:15:20.847Z,26.79
2022-08-02T11:16:21.369Z,26.82
2022-08-02T11:17:21.440Z,26.82
2022-08-02T11:18:21.107Z,26.89
2022-08-02T11:19:21.363Z,26.9
2022-08-02T11:20:21.130Z,26.9
2022-08-02T11:21:21.363Z,26.89
2022-08-02T11:22:28.182Z,26.86
2022-08-02T11:23:21.426Z,26.78
2022-08-02T11:24:21.107Z,26.78
2022-08-02T11:25:21.370Z,26.64
2022-08-02T11:26:20.858Z,26.61
2022-08-02T11:27:24.161Z,26.54
2022-08-02T11:28:25.873Z,26.52
2022-08-02T11:29:21.114Z,26.64
2022-08-02T11:30:26.349Z,26.72
2022-08-02T11:31:21.117Z,26.89
2022-08-02T11:32:21.139Z,26.89
2022-08-02T11:33:20.862Z,26.87
2022-08-02T11:34:41.788Z,26.78
2022-08-02T11:35:21.440Z,26.86
2022-08-02T11:36:21.127Z,26.79
2022-08-02T11:37:21.133Z,26.99
2022-08-02T11:38:21.136Z,26.99
2022-08-02T11:39:21.401Z,27.12
2022-08-02T11:40:35.527Z,27.34
2022-08-02T11:41:52.068Z,27.57
2022-08-02T11:42:21.135Z,27.64
2022-08-02T11:43:21.137Z,27.68
2022-08-02T11:44:25.509Z,27.75
2022-08-02T11:45:31.357Z,27.84
2022-08-02T11:46:21.141Z,27.94
2022-08-02T11:47:20.889Z,28.02
2022-08-02T11:48:21.139Z,28.09
2022-08-02T11:49:21.242Z,28.18
2022-08-02T11:50:29.559Z,28.17
2022-08-02T11:51:21.150Z,28.18
2022-08-02T11:52:22.049Z,28.26
2022-08-02T11:53:22.043Z,28.41
2022-08-02T11:54:22.055Z,28.38
2022-08-02T11:55:22.055Z,28.43
2022-08-02T11:56:29.761Z,28.49
2022-08-02T11:57:25.085Z,28.36
2022-08-02T11:58:21.797Z,28.36
2022-08-02T11:59:22.080Z,28.28
2022-08-02T12:00:22.064Z,28.17
2022-08-02T12:01:24.419Z,28.18
2022-08-02T12:02:23.531Z,28.12
2022-08-02T12:03:24.505Z,28.14
2022-08-02T12:04:25.001Z,28.14
2022-08-02T12:06:04.323Z,28.03
2022-08-02T12:06:26.107Z,28.06
2022-08-02T12:07:48.308Z,28.12
2022-08-02T12:08:27.775Z,28.08
2022-08-02T12:09:24.556Z,28.02
2022-08-02T12:10:24.811Z,28.01
2022-08-02T12:11:24.602Z,27.9
2022-08-02T12:12:24.326Z,27.81
2022-08-02T12:13:24.829Z,27.87
2022-08-02T12:14:24.595Z,27.8
2022-08-02T12:15:24.833Z,27.79
2022-08-02T12:16:24.574Z,27.76
2022-08-02T12:17:24.830Z,27.74
2022-08-02T12:18:24.315Z,27.8
2022-08-02T12:19:24.850Z,27.79
2022-08-02T12:20:24.844Z,27.68
2022-08-02T12:21:24.610Z,27.75
2022-08-02T12:22:29.674Z,27.74
2022-08-02T12:23:24.849Z,27.71
2022-08-02T12:24:24.597Z,27.64
2022-08-02T12:25:39.831Z,27.55
2022-08-02T12:26:24.595Z,27.48
2022-08-02T12:27:24.605Z,27.36
2022-08-02T12:28:24.606Z,27.3
2022-08-02T12:30:03.349Z,27.09
2022-08-02T12:30:32.639Z,27.05
2022-08-02T12:31:24.876Z,26.87
2022-08-02T12:32:24.610Z,26.84
2022-08-02T12:33:24.618Z,26.79
2022-08-02T12:34:35.999Z,26.87
2022-08-02T12:35:31.266Z,27
2022-08-02T12:36:24.612Z,27.12
2022-08-02T12:37:24.875Z,27.19
2022-08-02T12:38:25.203Z,27.12
2022-08-02T12:39:27.703Z,26.96
2022-08-02T12:40:29.294Z,26.9
2022-08-02T12:41:36.875Z,26.89
2022-08-02T12:42:24.383Z,26.74
2022-08-02T12:43:24.554Z,26.72
2022-08-02T12:44:24.799Z,26.57
2022-08-02T12:45:25.060Z,26.57
2022-08-02T12:46:25.471Z,26.59
2022-08-02T12:47:35.922Z,26.64
2022-08-02T12:48:25.474Z,26.78
2022-08-02T12:49:25.668Z,26.76
2022-08-02T12:50:25.223Z,26.89
2022-08-02T12:51:25.492Z,27.01
2022-08-02T12:52:25.212Z,27.28
2022-08-02T12:53:25.468Z,27.38
2022-08-02T12:54:36.064Z,27.59
2022-08-02T12:56:00.313Z,27.52
2022-08-02T12:56:25.209Z,27.42
2022-08-02T12:57:25.496Z,27.43
2022-08-02T12:58:25.236Z,27.36
2022-08-02T12:59:26.194Z,27.23
2022-08-02T13:00:25.234Z,27.05
2022-08-02T13:01:25.709Z,26.96
2022-08-02T13:02:26.245Z,26.94
2022-08-02T13:04:19.042Z,27
2022-08-02T13:04:30.069Z,26.91
2022-08-02T13:05:29.819Z,26.91
2022-08-02T13:06:50.123Z,26.78
2022-08-02T13:07:47.355Z,26.76
2022-08-02T13:08:47.617Z,26.75
2022-08-02T13:09:47.627Z,26.54
2022-08-02T13:10:48.666Z,26.52
2022-08-02T13:11:48.713Z,26.39